createdAt,value
2018-08-24T00:01:43.512Z,20.50
2018-08-24T00:04:11.941Z,20.50
2018-08-24T00:06:41.417Z,20.60
2018-08-24T00:09:12.825Z,20.60
2018-08-24T00:11:41.441Z,20.60
2018-08-24T00:14:11.068Z,20.60
2018-08-24T00:16:40.545Z,20.60
2018-08-24T00:19:16.256Z,20.70
2018-08-24T00:21:45.397Z,20.70
2018-08-24T00:24:14.374Z,20.60
2018-08-24T00:26:42.827Z,20.40
2018-08-24T00:29:11.396Z,20.30
2018-08-24T00:31:40.394Z,20.40
2018-08-24T00:34:08.807Z,20.30
2018-08-24T00:36:37.232Z,20.20
2018-08-24T00:39:07.479Z,20.20
2018-08-24T00:41:36.058Z,20.20
2018-08-24T00:44:04.548Z,20.00
2018-08-24T00:46:33.005Z,19.90
2018-08-24T00:49:01.491Z,19.80
2018-08-24T00:51:29.933Z,19.70
2018-08-24T00:53:58.350Z,19.60
2018-08-24T00:56:26.813Z,19.60
2018-08-24T00:58:55.244Z,19.40
2018-08-24T01:01:24.019Z,19.30
2018-08-24T01:03:52.460Z,19.20
2018-08-24T01:06:22.941Z,19.30
2018-08-24T01:08:51.389Z,19.20
2018-08-24T01:11:19.892Z,19.20
2018-08-24T01:13:51.368Z,19.00
2018-08-24T01:16:25.303Z,19.00
2018-08-24T01:18:53.765Z,19.00
2018-08-24T01:21:22.242Z,18.90
2018-08-24T01:23:50.785Z,19.00
2018-08-24T01:26:22.917Z,19.00
2018-08-24T01:28:52.181Z,18.90
2018-08-24T01:31:20.729Z,18.80
2018-08-24T01:33:49.169Z,18.80
2018-08-24T01:36:17.621Z,18.90
2018-08-24T01:38:46.050Z,18.80
2018-08-24T01:41:14.520Z,18.70
2018-08-24T01:43:42.997Z,18.80
2018-08-24T01:46:16.481Z,18.40
2018-08-24T01:48:44.897Z,18.30
2018-08-24T01:51:13.329Z,18.30
2018-08-24T01:53:41.772Z,18.30
2018-08-24T01:56:10.257Z,18.40
2018-08-24T01:58:38.725Z,18.20
2018-08-24T02:01:07.162Z,18.20
2018-08-24T02:03:35.600Z,18.40
2018-08-24T02:06:04.980Z,18.50
2018-08-24T02:08:33.733Z,18.10
2018-08-24T02:11:02.292Z,18.10
2018-08-24T02:13:35.984Z,18.10
2018-08-24T02:16:04.449Z,18.00
2018-08-24T02:18:38.237Z,18.00
2018-08-24T02:21:12.180Z,18.20
2018-08-24T02:23:40.605Z,18.30
2018-08-24T02:26:09.065Z,18.10
2018-08-24T02:28:37.502Z,18.20
2018-08-24T02:31:05.955Z,18.20
2018-08-24T02:33:38.356Z,18.10
2018-08-24T02:36:07.517Z,18.10
2018-08-24T02:38:35.993Z,18.00
2018-08-24T02:41:04.536Z,17.90
2018-08-24T02:43:33.012Z,17.90
2018-08-24T02:46:01.509Z,17.90
2018-08-24T02:48:29.961Z,17.90
2018-08-24T02:50:58.410Z,17.80
2018-08-24T02:53:27.190Z,17.80
2018-08-24T02:55:55.617Z,17.80
2018-08-24T02:58:24.045Z,17.70
2018-08-24T03:00:52.485Z,17.80
2018-08-24T03:03:20.897Z,17.80
2018-08-24T03:05:49.334Z,17.80
2018-08-24T03:08:17.827Z,17.80
2018-08-24T03:10:46.176Z,17.80
2018-08-24T03:13:14.609Z,17.70
2018-08-24T03:15:43.029Z,17.70
2018-08-24T03:18:11.473Z,17.60
2018-08-24T03:20:39.898Z,17.40
2018-08-24T03:23:08.341Z,17.50
2018-08-24T03:25:36.759Z,17.60
2018-08-24T03:28:05.328Z,17.40
2018-08-24T03:30:33.760Z,17.30
2018-08-24T03:33:02.176Z,17.50
2018-08-24T03:35:30.613Z,17.60
2018-08-24T03:37:59.032Z,17.70
2018-08-24T03:40:27.469Z,17.90
2018-08-24T03:42:55.931Z,17.80
2018-08-24T03:45:24.364Z,17.70
2018-08-24T03:47:52.788Z,17.70
2018-08-24T03:50:21.216Z,17.60
2018-08-24T03:52:49.734Z,17.70
2018-08-24T03:55:18.090Z,17.70
2018-08-24T03:57:46.545Z,17.70
2018-08-24T04:00:17.673Z,17.70
2018-08-24T04:02:46.669Z,17.70
2018-08-24T04:05:15.655Z,17.80
2018-08-24T04:07:44.428Z,17.90
2018-08-24T04:10:12.911Z,17.80
2018-08-24T04:12:41.338Z,17.90
2018-08-24T04:15:09.393Z,17.90
2018-08-24T04:17:43.137Z,17.80
2018-08-24T04:20:11.968Z,17.90
2018-08-24T04:22:40.637Z,18.00
2018-08-24T04:25:09.651Z,17.90
2018-08-24T04:27:38.512Z,17.70
2018-08-24T04:30:07.140Z,17.70
2018-08-24T04:32:35.644Z,17.60
2018-08-24T04:35:04.534Z,17.60
2018-08-24T04:37:32.922Z,17.70
2018-08-24T04:40:01.395Z,17.80
2018-08-24T04:42:29.858Z,17.90
2018-08-24T04:44:58.282Z,17.80
2018-08-24T04:47:26.740Z,17.80
2018-08-24T04:49:55.198Z,17.80
2018-08-24T04:52:24.245Z,17.80
2018-08-24T04:54:52.940Z,17.80
2018-08-24T04:57:21.355Z,17.80
2018-08-24T04:59:49.826Z,17.90
2018-08-24T05:02:18.238Z,17.80
2018-08-24T05:04:46.693Z,17.80
2018-08-24T05:07:15.130Z,17.90
2018-08-24T05:09:43.581Z,17.80
2018-08-24T05:12:12.022Z,17.90
2018-08-24T05:14:40.553Z,17.80
2018-08-24T05:17:09.201Z,17.90
2018-08-24T05:19:37.645Z,17.90
2018-08-24T05:22:06.150Z,17.60
2018-08-24T05:24:34.594Z,17.80
2018-08-24T05:27:03.012Z,17.80
2018-08-24T05:29:31.525Z,17.80
2018-08-24T05:31:59.949Z,17.90
2018-08-24T05:34:28.389Z,17.90
2018-08-24T05:36:56.816Z,17.90
2018-08-24T05:39:25.265Z,17.90
2018-08-24T05:41:53.716Z,17.90
2018-08-24T05:44:22.157Z,17.90
2018-08-24T05:46:50.596Z,18.10
2018-08-24T05:49:19.021Z,18.10
2018-08-24T05:51:47.745Z,18.20
2018-08-24T05:54:16.161Z,18.20
2018-08-24T05:56:44.605Z,18.10
2018-08-24T05:59:13.073Z,18.10
2018-08-24T06:01:41.509Z,18.10
2018-08-24T06:04:09.956Z,18.20
2018-08-24T06:06:38.423Z,18.20
2018-08-24T06:09:13.880Z,18.20
2018-08-24T06:11:42.541Z,18.20
2018-08-24T06:14:11.862Z,18.20
2018-08-24T06:16:44.593Z,18.20
2018-08-24T06:19:13.115Z,18.30
2018-08-24T06:21:41.577Z,18.30
2018-08-24T06:24:10.000Z,18.30
2018-08-24T06:26:38.468Z,18.40
2018-08-24T06:29:06.911Z,18.40
2018-08-24T06:31:35.376Z,18.40
2018-08-24T06:34:03.838Z,18.50
2018-08-24T06:36:32.310Z,18.40
2018-08-24T06:39:00.746Z,18.40
2018-08-24T06:41:29.161Z,18.60
2018-08-24T06:43:57.633Z,18.70
2018-08-24T06:46:26.113Z,18.70
2018-08-24T06:48:54.586Z,18.70
2018-08-24T06:51:23.025Z,18.90
2018-08-24T06:53:51.541Z,18.90
2018-08-24T06:56:19.983Z,19.00
2018-08-24T06:58:48.427Z,19.20
2018-08-24T07:01:17.002Z,19.30
2018-08-24T07:03:45.434Z,19.30
2018-08-24T07:06:14.132Z,19.30
2018-08-24T07:08:42.629Z,19.10
2018-08-24T07:11:12.725Z,19.10
2018-08-24T07:13:41.242Z,19.20
2018-08-24T07:16:11.574Z,19.00
2018-08-24T07:18:40.144Z,18.90
2018-08-24T07:21:08.588Z,18.80
2018-08-24T07:23:37.678Z,18.90
2018-08-24T07:26:06.409Z,19.10
2018-08-24T07:28:34.882Z,18.90
2018-08-24T07:31:03.333Z,18.70
2018-08-24T07:33:31.788Z,18.60
2018-08-24T07:36:00.243Z,18.50
2018-08-24T07:38:28.660Z,18.50
2018-08-24T07:40:57.108Z,18.50
2018-08-24T07:43:25.541Z,18.40
2018-08-24T07:45:53.985Z,18.40
2018-08-24T07:48:23.464Z,18.40
2018-08-24T07:50:52.069Z,18.40
2018-08-24T07:53:20.442Z,18.30
2018-08-24T07:55:48.872Z,18.40
2018-08-24T07:58:17.369Z,18.50
2018-08-24T08:00:45.791Z,18.60
2018-08-24T08:03:14.217Z,18.80
2018-08-24T08:05:42.649Z,18.90
2018-08-24T08:08:11.113Z,19.00
2018-08-24T08:10:40.612Z,18.90
2018-08-24T08:13:10.750Z,18.80
2018-08-24T08:15:39.340Z,18.70
2018-08-24T08:18:07.872Z,18.70
2018-08-24T08:20:36.302Z,18.60
2018-08-24T08:23:04.803Z,18.70
2018-08-24T08:25:33.287Z,18.70
2018-08-24T08:28:01.766Z,18.70
2018-08-24T08:30:30.225Z,18.80
2018-08-24T08:32:58.664Z,18.90
2018-08-24T08:35:27.125Z,18.90
2018-08-24T08:37:55.581Z,19.00
2018-08-24T08:40:24.005Z,19.10
2018-08-24T08:42:52.479Z,19.00
2018-08-24T08:45:20.978Z,19.00
2018-08-24T08:47:49.395Z,19.10
2018-08-24T08:50:17.897Z,19.20
2018-08-24T08:52:46.409Z,19.10
2018-08-24T08:55:14.882Z,19.20
2018-08-24T08:57:43.314Z,19.50
2018-08-24T09:00:11.783Z,19.60
2018-08-24T09:02:40.296Z,19.50
2018-08-24T09:05:08.717Z,19.60
2018-08-24T09:07:37.165Z,20.10
2018-08-24T09:10:05.686Z,20.60
2018-08-24T09:12:34.134Z,20.60
2018-08-24T09:15:02.645Z,20.30
2018-08-24T09:17:36.350Z,20.30
2018-08-24T09:20:10.141Z,20.80
2018-08-24T09:22:43.702Z,20.60
2018-08-24T09:25:17.376Z,20.30
2018-08-24T09:27:51.130Z,20.70
2018-08-24T09:30:20.047Z,22.50
2018-08-24T09:32:48.531Z,24.50
2018-08-24T09:35:16.945Z,26.10
2018-08-24T09:37:45.380Z,26.60
2018-08-24T09:40:13.837Z,27.00
2018-08-24T09:42:42.297Z,26.40
2018-08-24T09:45:10.759Z,26.10
2018-08-24T09:47:44.603Z,26.20
2018-08-24T09:50:18.461Z,26.50
2018-08-24T09:52:52.363Z,26.10
2018-08-24T09:55:20.975Z,25.70
2018-08-24T09:57:49.417Z,25.00
2018-08-24T10:00:17.882Z,25.60
2018-08-24T10:02:46.425Z,26.60
2018-08-24T10:05:20.171Z,28.20
2018-08-24T10:07:53.861Z,28.70
2018-08-24T10:10:22.312Z,28.40
2018-08-24T10:12:50.738Z,28.30
2018-08-24T10:15:19.231Z,28.10
2018-08-24T10:17:47.680Z,26.80
2018-08-24T10:20:16.110Z,25.60
2018-08-24T10:22:44.569Z,24.70
2018-08-24T10:25:13.059Z,23.90
2018-08-24T10:27:41.500Z,24.30
2018-08-24T10:30:09.958Z,24.60
2018-08-24T10:32:38.398Z,24.90
2018-08-24T10:35:06.888Z,25.40
2018-08-24T10:37:35.349Z,26.50
2018-08-24T10:40:03.857Z,27.40
2018-08-24T10:42:32.320Z,27.20
2018-08-24T10:45:00.747Z,26.90
2018-08-24T10:47:29.210Z,27.10
2018-08-24T10:49:57.708Z,27.20
2018-08-24T10:52:26.182Z,27.50
2018-08-24T10:54:54.692Z,28.10
2018-08-24T10:57:23.118Z,28.80
2018-08-24T10:59:51.535Z,28.80
2018-08-24T11:02:19.969Z,28.70
2018-08-24T11:04:48.407Z,28.90
2018-08-24T11:07:17.203Z,27.80
2018-08-24T11:09:45.574Z,28.30
2018-08-24T11:12:14.061Z,28.30
2018-08-24T11:14:42.538Z,28.40
2018-08-24T11:17:10.978Z,28.70
2018-08-24T11:19:39.444Z,28.60
2018-08-24T11:22:07.943Z,27.70
2018-08-24T11:24:36.380Z,26.60
2018-08-24T11:27:04.858Z,25.80
2018-08-24T11:29:33.287Z,25.50
2018-08-24T11:32:01.783Z,24.90
2018-08-24T11:34:30.222Z,24.70
2018-08-24T11:36:58.681Z,25.90
2018-08-24T11:39:27.135Z,26.40
2018-08-24T11:41:55.633Z,26.60
2018-08-24T11:44:24.070Z,26.00
2018-08-24T11:46:52.534Z,26.50
2018-08-24T11:49:21.043Z,27.00
2018-08-24T11:51:49.487Z,27.20
2018-08-24T11:54:17.981Z,26.20
2018-08-24T11:56:46.454Z,25.40
2018-08-24T11:59:14.921Z,25.10
2018-08-24T12:01:43.418Z,25.00
2018-08-24T12:04:11.853Z,24.70
2018-08-24T12:06:40.324Z,25.10
2018-08-24T12:09:09.617Z,25.20
2018-08-24T12:11:38.088Z,24.80
2018-08-24T12:14:06.674Z,24.20
2018-08-24T12:16:35.130Z,24.40
2018-08-24T12:19:03.583Z,24.80
2018-08-24T12:21:32.068Z,25.20
2018-08-24T12:24:00.514Z,26.00
2018-08-24T12:26:28.949Z,26.40
2018-08-24T12:28:57.391Z,26.50
2018-08-24T12:31:25.861Z,27.00
2018-08-24T12:33:54.301Z,27.20
2018-08-24T12:36:22.852Z,27.60
2018-08-24T12:38:51.301Z,27.40
2018-08-24T12:41:19.838Z,28.10
2018-08-24T12:43:48.231Z,27.90
2018-08-24T12:46:16.666Z,27.40
2018-08-24T12:48:45.105Z,27.20
2018-08-24T12:51:13.545Z,27.30
2018-08-24T12:53:42.004Z,27.50
2018-08-24T12:56:15.793Z,27.60
2018-08-24T12:58:44.228Z,26.90
2018-08-24T13:01:12.678Z,26.80
2018-08-24T13:03:41.140Z,26.90
2018-08-24T13:06:09.645Z,26.30
2018-08-24T13:08:38.154Z,26.70
2018-08-24T13:11:06.894Z,26.80
2018-08-24T13:13:35.526Z,26.20
2018-08-24T13:16:04.035Z,25.90
2018-08-24T13:18:32.529Z,25.70
2018-08-24T13:21:00.966Z,26.60
2018-08-24T13:23:29.429Z,27.20
2018-08-24T13:25:57.852Z,27.30
2018-08-24T13:28:26.321Z,26.80
2018-08-24T13:30:54.794Z,26.20
2018-08-24T13:33:23.260Z,26.60
2018-08-24T13:35:51.797Z,26.60
2018-08-24T13:38:20.245Z,26.40
2018-08-24T13:40:48.722Z,26.00
2018-08-24T13:43:17.197Z,25.70
2018-08-24T13:45:45.657Z,25.30
2018-08-24T13:48:14.104Z,25.40
2018-08-24T13:50:42.574Z,25.30
2018-08-24T13:53:11.002Z,25.10
2018-08-24T13:55:39.489Z,24.80
2018-08-24T13:58:08.021Z,24.50
2018-08-24T14:00:36.483Z,24.60
2018-08-24T14:03:04.961Z,24.40
2018-08-24T14:05:33.473Z,24.30
2018-08-24T14:08:01.882Z,24.40
2018-08-24T14:10:30.357Z,24.50
2018-08-24T14:12:58.854Z,24.40
2018-08-24T14:15:27.262Z,23.50
2018-08-24T14:17:55.722Z,23.60
2018-08-24T14:20:24.977Z,23.30
2018-08-24T14:22:53.445Z,23.30
2018-08-24T14:25:21.925Z,23.40
2018-08-24T14:27:50.337Z,23.10
2018-08-24T14:30:18.783Z,23.30
2018-08-24T14:32:47.221Z,23.30
2018-08-24T14:35:15.669Z,23.20
2018-08-24T14:37:44.117Z,23.30
2018-08-24T14:40:12.697Z,23.40
2018-08-24T14:42:41.254Z,23.40
2018-08-24T14:45:09.716Z,23.50
2018-08-24T14:47:38.207Z,23.40
2018-08-24T14:50:06.874Z,23.50
2018-08-24T14:52:35.298Z,23.30
2018-08-24T14:55:03.803Z,23.30
2018-08-24T14:57:32.262Z,23.20
2018-08-24T15:00:00.717Z,23.10
2018-08-24T15:02:29.219Z,23.20
2018-08-24T15:04:57.709Z,23.20
2018-08-24T15:07:26.133Z,22.90
2018-08-24T15:09:54.721Z,22.90
2018-08-24T15:12:23.124Z,23.00
2018-08-24T15:14:51.571Z,23.00
2018-08-24T15:17:20.037Z,22.80
2018-08-24T15:19:48.459Z,22.70
2018-08-24T15:22:16.957Z,22.70
2018-08-24T15:24:45.388Z,22.70
2018-08-24T15:27:13.860Z,22.60
2018-08-24T15:29:42.325Z,22.60
2018-08-24T15:32:10.824Z,22.70
2018-08-24T15:34:39.315Z,22.40
2018-08-24T15:37:07.745Z,22.40
2018-08-24T15:39:36.207Z,22.30
2018-08-24T15:42:04.667Z,22.30
2018-08-24T15:44:33.114Z,22.20
2018-08-24T15:47:01.541Z,22.20
2018-08-24T15:49:30.008Z,22.00
2018-08-24T15:51:58.456Z,21.80
2018-08-24T15:54:27.322Z,21.70
2018-08-24T15:56:55.746Z,21.60
2018-08-24T15:59:24.215Z,21.50
2018-08-24T16:01:52.696Z,21.50
2018-08-24T16:04:21.525Z,21.50
2018-08-24T16:06:50.408Z,21.50
2018-08-24T16:09:21.739Z,21.50
2018-08-24T16:11:50.457Z,21.40
2018-08-24T16:14:19.146Z,21.40
2018-08-24T16:16:47.591Z,21.30
2018-08-24T16:19:16.009Z,21.30
2018-08-24T16:21:44.541Z,21.40
2018-08-24T16:24:13.067Z,21.50
2018-08-24T16:26:41.534Z,21.50
2018-08-24T16:29:09.993Z,21.40
2018-08-24T16:31:38.460Z,21.30
2018-08-24T16:34:06.938Z,21.10
2018-08-24T16:36:35.369Z,21.00
2018-08-24T16:39:04.286Z,20.90
2018-08-24T16:41:32.721Z,21.00
2018-08-24T16:44:01.206Z,20.90
2018-08-24T16:46:29.624Z,20.90
2018-08-24T16:48:58.105Z,20.90
2018-08-24T16:51:26.544Z,20.80
2018-08-24T16:53:54.992Z,20.70
2018-08-24T16:56:23.433Z,20.70
2018-08-24T16:58:51.858Z,20.70
2018-08-24T17:01:20.289Z,20.70
2018-08-24T17:03:48.805Z,20.60
2018-08-24T17:06:17.237Z,20.50
2018-08-24T17:08:45.667Z,20.40
2018-08-24T17:11:14.341Z,20.40
2018-08-24T17:13:42.791Z,20.30
2018-08-24T17:16:11.236Z,20.10
2018-08-24T17:18:39.689Z,20.10
2018-08-24T17:21:08.149Z,20.10
2018-08-24T17:23:36.624Z,20.00
2018-08-24T17:26:05.089Z,19.90
2018-08-24T17:28:33.599Z,19.90
2018-08-24T17:31:02.117Z,19.80
2018-08-24T17:33:30.540Z,19.80
2018-08-24T17:35:58.994Z,19.80
2018-08-24T17:38:27.433Z,19.70
2018-08-24T17:40:55.907Z,19.70
2018-08-24T17:43:24.342Z,19.60
2018-08-24T17:45:52.793Z,19.60
2018-08-24T17:48:21.254Z,19.50
2018-08-24T17:50:49.726Z,19.60
2018-08-24T17:53:18.180Z,19.50
2018-08-24T17:55:46.614Z,19.50
2018-08-24T17:58:15.078Z,19.50
2018-08-24T18:00:43.516Z,19.40
2018-08-24T18:03:11.943Z,19.40
2018-08-24T18:05:40.381Z,19.30
2018-08-24T18:08:08.826Z,19.30
2018-08-24T18:10:37.277Z,19.20
2018-08-24T18:13:05.776Z,19.20
2018-08-24T18:15:34.232Z,19.10
2018-08-24T18:18:02.648Z,19.10
2018-08-24T18:20:31.088Z,19.00
2018-08-24T18:22:59.569Z,19.00
2018-08-24T18:25:28.075Z,18.90
2018-08-24T18:27:56.517Z,18.90
2018-08-24T18:30:24.925Z,18.80
2018-08-24T18:32:53.510Z,18.80
2018-08-24T18:35:21.921Z,18.80
2018-08-24T18:37:50.354Z,18.90
2018-08-24T18:40:18.817Z,19.00
2018-08-24T18:42:47.258Z,19.10
2018-08-24T18:45:15.788Z,19.20
2018-08-24T18:47:44.220Z,19.10
2018-08-24T18:50:12.761Z,19.10
2018-08-24T18:52:41.568Z,19.10
2018-08-24T18:55:10.002Z,19.10
2018-08-24T18:57:38.515Z,19.10
2018-08-24T19:00:07.093Z,19.10
2018-08-24T19:02:35.553Z,19.10
2018-08-24T19:05:04.147Z,19.10
2018-08-24T19:07:32.662Z,19.10
2018-08-24T19:10:01.649Z,19.10
2018-08-24T19:12:30.541Z,19.10
2018-08-24T19:14:59.622Z,19.10
2018-08-24T19:17:33.359Z,19.20
2018-08-24T19:20:06.942Z,19.10
2018-08-24T19:22:35.419Z,19.10
2018-08-24T19:25:03.901Z,19.00
2018-08-24T19:27:37.672Z,19.00
2018-08-24T19:30:11.494Z,18.90
2018-08-24T19:32:39.967Z,18.80
2018-08-24T19:35:08.424Z,18.80
2018-08-24T19:37:37.156Z,18.90
2018-08-24T19:40:11.329Z,18.90
2018-08-24T19:42:39.815Z,18.90
2018-08-24T19:45:08.387Z,18.90
2018-08-24T19:47:42.025Z,18.90
2018-08-24T19:50:10.480Z,18.80
2018-08-24T19:52:38.925Z,18.90
2018-08-24T19:55:07.360Z,18.80
2018-08-24T19:57:41.265Z,18.80
2018-08-24T20:00:09.705Z,18.70
2018-08-24T20:02:38.150Z,18.70
2018-08-24T20:05:06.683Z,18.70
2018-08-24T20:07:40.439Z,18.60
2018-08-24T20:10:11.399Z,18.60
2018-08-24T20:12:39.848Z,18.50
2018-08-24T20:15:13.851Z,18.50
2018-08-24T20:17:43.327Z,18.40
2018-08-24T20:20:11.764Z,18.40
2018-08-24T20:22:40.378Z,18.40
2018-08-24T20:25:08.865Z,18.30
2018-08-24T20:27:37.373Z,18.30
2018-08-24T20:30:05.841Z,18.20
2018-08-24T20:32:34.271Z,18.20
2018-08-24T20:35:02.723Z,18.10
2018-08-24T20:37:31.149Z,18.10
2018-08-24T20:39:59.676Z,18.10
2018-08-24T20:42:28.462Z,18.00
2018-08-24T20:44:56.897Z,18.00
2018-08-24T20:47:25.512Z,18.00
2018-08-24T20:49:53.773Z,18.00
2018-08-24T20:52:22.233Z,18.00
2018-08-24T20:54:50.669Z,18.00
2018-08-24T20:57:19.096Z,17.90
2018-08-24T20:59:47.524Z,17.80
2018-08-24T21:02:15.978Z,17.80
2018-08-24T21:04:44.477Z,17.80
2018-08-24T21:07:12.906Z,17.60
2018-08-24T21:09:41.349Z,17.40
2018-08-24T21:12:09.820Z,17.30
2018-08-24T21:14:38.271Z,17.20
2018-08-24T21:17:06.717Z,17.20
2018-08-24T21:19:35.189Z,17.30
2018-08-24T21:22:04.596Z,17.30
2018-08-24T21:24:33.081Z,17.20
2018-08-24T21:27:01.588Z,17.20
2018-08-24T21:29:30.025Z,17.20
2018-08-24T21:31:58.489Z,17.00
2018-08-24T21:34:26.914Z,17.00
2018-08-24T21:36:55.362Z,17.00
2018-08-24T21:39:23.819Z,16.90
2018-08-24T21:41:52.276Z,16.90
2018-08-24T21:44:20.716Z,16.90
2018-08-24T21:46:49.166Z,16.90
2018-08-24T21:49:17.620Z,16.90
2018-08-24T21:51:46.041Z,16.80
2018-08-24T21:54:14.489Z,16.90
2018-08-24T21:56:42.965Z,16.90
2018-08-24T21:59:11.404Z,16.80
2018-08-24T22:01:39.880Z,16.80
2018-08-24T22:04:08.350Z,16.80
2018-08-24T22:06:36.784Z,16.80
2018-08-24T22:09:07.844Z,16.80
2018-08-24T22:11:36.361Z,16.80
2018-08-24T22:14:04.872Z,16.80
2018-08-24T22:16:33.378Z,16.80
2018-08-24T22:19:02.032Z,16.80
2018-08-24T22:21:30.454Z,16.80
2018-08-24T22:23:58.922Z,16.80
2018-08-24T22:26:27.349Z,16.80
2018-08-24T22:28:56.148Z,16.80
2018-08-24T22:31:24.594Z,16.80
2018-08-24T22:33:53.034Z,16.80
2018-08-24T22:36:21.481Z,16.80
2018-08-24T22:38:49.929Z,16.80
2018-08-24T22:41:18.666Z,16.70
2018-08-24T22:43:47.077Z,16.70
2018-08-24T22:46:15.496Z,16.70
2018-08-24T22:48:43.950Z,16.60
2018-08-24T22:51:12.381Z,16.60
2018-08-24T22:53:40.795Z,16.60
2018-08-24T22:56:09.217Z,16.60
2018-08-24T22:58:37.680Z,16.50
2018-08-24T23:01:06.412Z,16.50
2018-08-24T23:03:34.818Z,16.40
2018-08-24T23:06:03.371Z,16.40
2018-08-24T23:08:31.804Z,16.50
2018-08-24T23:11:00.335Z,16.50
2018-08-24T23:13:28.796Z,16.40
2018-08-24T23:15:57.213Z,16.40
2018-08-24T23:18:25.631Z,16.40
2018-08-24T23:20:54.078Z,16.40
2018-08-24T23:23:22.581Z,16.40
2018-08-24T23:25:51.022Z,16.30
2018-08-24T23:28:19.439Z,16.30
2018-08-24T23:30:47.878Z,16.20
2018-08-24T23:33:16.307Z,16.20
2018-08-24T23:35:44.755Z,16.20
2018-08-24T23:38:13.181Z,16.20
2018-08-24T23:40:41.614Z,16.10
2018-08-24T23:43:10.045Z,16.10
2018-08-24T23:45:38.470Z,16.10
2018-08-24T23:48:06.929Z,16.20
2018-08-24T23:50:35.397Z,16.10
2018-08-24T23:53:03.825Z,16.10
2018-08-24T23:55:32.338Z,16.10
2018-08-24T23:58:00.782Z,16.10
